sensor_id;sensor_type;location;lat;lon;timestamp;temperature;humidity
9824;DHT22;4951;50.778;7.196;2023-09-18T00:02:21;20.00;1.00
9824;DHT22;4951;50.778;7.196;2023-09-18T00:04:49;20.00;1.00
9824;DHT22;4951;50.778;7.196;2023-09-18T00:07:16;20.00;1.00
9824;DHT22;4951;50.778;7.196;2023-09-18T00:09:48;20.10;1.00
9824;DHT22;4951;50.778;7.196;2023-09-18T00:12:18;20.00;1.00
9824;DHT22;4951;50.778;7.196;2023-09-18T00:14:48;20.10;1.00
9824;DHT22;4951;50.778;7.196;2023-09-18T00:17:17;20.10;1.00
9824;DHT22;4951;50.778;7.196;2023-09-18T00:19:49;20.10;1.00
9824;DHT22;4951;50.778;7.196;2023-09-18T00:22:20;20.00;1.00
9824;DHT22;4951;50.778;7.196;2023-09-18T00:24:52;20.00;1.00
9824;DHT22;4951;50.778;7.196;2023-09-18T00:27:19;19.90;1.00
9824;DHT22;4951;50.778;7.196;2023-09-18T00:29:47;19.90;1.00
9824;DHT22;4951;50.778;7.196;2023-09-18T00:32:14;19.80;1.00
9824;DHT22;4951;50.778;7.196;2023-09-18T00:34:42;19.80;1.00
9824;DHT22;4951;50.778;7.196;2023-09-18T00:37:09;19.70;1.00
9824;DHT22;4951;50.778;7.196;2023-09-18T00:39:40;19.70;1.00
9824;DHT22;4951;50.778;7.196;2023-09-18T00:42:10;19.60;1.00
9824;DHT22;4951;50.778;7.196;2023-09-18T00:44:41;19.60;1.00
9824;DHT22;4951;50.778;7.196;2023-09-18T00:47:09;19.60;1.00
9824;DHT22;4951;50.778;7.196;2023-09-18T00:49:39;19.60;1.00
9824;DHT22;4951;50.778;7.196;2023-09-18T00:52:12;19.60;1.00
9824;DHT22;4951;50.778;7.196;2023-09-18T00:54:43;19.70;1.00
9824;DHT22;4951;50.778;7.196;2023-09-18T00:57:13;19.70;1.00
9824;DHT22;4951;50.778;7.196;2023-09-18T00:59:40;19.80;1.00
9824;DHT22;4951;50.778;7.196;2023-09-18T01:02:09;19.80;1.00
9824;DHT22;4951;50.778;7.196;2023-09-18T01:04:37;19.90;1.00
9824;DHT22;4951;50.778;7.196;2023-09-18T01:07:10;19.90;1.00
9824;DHT22;4951;50.778;7.196;2023-09-18T01:09:38;19.90;1.00
9824;DHT22;4951;50.778;7.196;2023-09-18T01:12:11;19.90;1.00
9824;DHT22;4951;50.778;7.196;2023-09-18T01:14:48;20.00;1.00
9824;DHT22;4951;50.778;7.196;2023-09-18T01:17:18;20.00;1.00
9824;DHT22;4951;50.778;7.196;2023-09-18T01:19:46;20.00;1.00
9824;DHT22;4951;50.778;7.196;2023-09-18T01:22:19;20.00;1.00
9824;DHT22;4951;50.778;7.196;2023-09-18T01:24:49;20.10;1.00
9824;DHT22;4951;50.778;7.196;2023-09-18T01:27:18;20.10;1.00
9824;DHT22;4951;50.778;7.196;2023-09-18T01:29:47;20.00;1.00
9824;DHT22;4951;50.778;7.196;2023-09-18T01:32:15;20.00;1.00
9824;DHT22;4951;50.778;7.196;2023-09-18T01:34:46;20.00;1.00
9824;DHT22;4951;50.778;7.196;2023-09-18T01:37:19;19.90;1.00
9824;DHT22;4951;50.778;7.196;2023-09-18T01:39:50;19.90;1.00
9824;DHT22;4951;50.778;7.196;2023-09-18T01:42:18;19.80;1.00
9824;DHT22;4951;50.778;7.196;2023-09-18T01:44:47;19.80;1.00
9824;DHT22;4951;50.778;7.196;2023-09-18T01:47:18;19.80;1.00
9824;DHT22;4951;50.778;7.196;2023-09-18T01:49:47;19.80;1.00
9824;DHT22;4951;50.778;7.196;2023-09-18T01:52:15;19.80;1.00
9824;DHT22;4951;50.778;7.196;2023-09-18T01:54:42;19.90;1.00
9824;DHT22;4951;50.778;7.196;2023-09-18T01:57:13;19.90;1.00
9824;DHT22;4951;50.778;7.196;2023-09-18T01:59:41;20.00;1.00
9824;DHT22;4951;50.778;7.196;2023-09-18T02:02:09;20.10;1.00
9824;DHT22;4951;50.778;7.196;2023-09-18T02:04:37;20.20;1.00
9824;DHT22;4951;50.778;7.196;2023-09-18T02:07:06;20.20;99.90
9824;DHT22;4951;50.778;7.196;2023-09-18T02:09:35;20.30;99.90
9824;DHT22;4951;50.778;7.196;2023-09-18T02:12:03;20.30;99.90
9824;DHT22;4951;50.778;7.196;2023-09-18T02:14:32;20.40;99.90
9824;DHT22;4951;50.778;7.196;2023-09-18T02:17:02;20.40;99.90
9824;DHT22;4951;50.778;7.196;2023-09-18T02:19:31;20.50;99.90
9824;DHT22;4951;50.778;7.196;2023-09-18T02:21:58;20.50;99.90
9824;DHT22;4951;50.778;7.196;2023-09-18T02:24:27;20.50;99.90
9824;DHT22;4951;50.778;7.196;2023-09-18T02:26:54;20.60;99.90
9824;DHT22;4951;50.778;7.196;2023-09-18T02:29:22;20.60;99.90
9824;DHT22;4951;50.778;7.196;2023-09-18T02:31:52;20.80;99.90
9824;DHT22;4951;50.778;7.196;2023-09-18T02:34:19;20.80;66.30
9824;DHT22;4951;50.778;7.196;2023-09-18T02:36:48;20.80;99.90
9824;DHT22;4951;50.778;7.196;2023-09-18T02:39:16;20.80;99.90
9824;DHT22;4951;50.778;7.196;2023-09-18T02:41:43;20.80;99.90
9824;DHT22;4951;50.778;7.196;2023-09-18T02:44:11;20.70;99.90
9824;DHT22;4951;50.778;7.196;2023-09-18T02:46:39;20.60;99.90
9824;DHT22;4951;50.778;7.196;2023-09-18T02:49:08;20.40;99.90
9824;DHT22;4951;50.778;7.196;2023-09-18T02:51:35;20.40;99.90
9824;DHT22;4951;50.778;7.196;2023-09-18T02:54:03;20.20;1.00
9824;DHT22;4951;50.778;7.196;2023-09-18T02:56:32;20.10;1.00
9824;DHT22;4951;50.778;7.196;2023-09-18T02:58:59;20.10;1.00
9824;DHT22;4951;50.778;7.196;2023-09-18T03:01:27;20.00;1.00
9824;DHT22;4951;50.778;7.196;2023-09-18T03:03:54;20.00;1.00
9824;DHT22;4951;50.778;7.196;2023-09-18T03:06:24;19.90;1.00
9824;DHT22;4951;50.778;7.196;2023-09-18T03:08:51;19.90;1.00
9824;DHT22;4951;50.778;7.196;2023-09-18T03:11:19;19.90;1.00
9824;DHT22;4951;50.778;7.196;2023-09-18T03:13:47;19.90;1.00
9824;DHT22;4951;50.778;7.196;2023-09-18T03:16:18;19.90;1.00
9824;DHT22;4951;50.778;7.196;2023-09-18T03:18:47;19.90;1.00
9824;DHT22;4951;50.778;7.196;2023-09-18T03:21:16;19.90;1.00
9824;DHT22;4951;50.778;7.196;2023-09-18T03:23:46;19.90;1.00
9824;DHT22;4951;50.778;7.196;2023-09-18T03:26:15;19.90;1.00
9824;DHT22;4951;50.778;7.196;2023-09-18T03:28:44;19.90;1.00
9824;DHT22;4951;50.778;7.196;2023-09-18T03:31:12;19.90;1.00
9824;DHT22;4951;50.778;7.196;2023-09-18T03:33:39;19.80;1.00
9824;DHT22;4951;50.778;7.196;2023-09-18T03:36:07;19.80;1.00
9824;DHT22;4951;50.778;7.196;2023-09-18T03:38:40;19.90;1.00
9824;DHT22;4951;50.778;7.196;2023-09-18T03:41:09;20.00;1.00
9824;DHT22;4951;50.778;7.196;2023-09-18T03:43:37;20.10;1.00
9824;DHT22;4951;50.778;7.196;2023-09-18T03:46:06;20.20;1.00
9824;DHT22;4951;50.778;7.196;2023-09-18T03:48:41;20.20;1.00
9824;DHT22;4951;50.778;7.196;2023-09-18T03:51:12;20.30;1.00
9824;DHT22;4951;50.778;7.196;2023-09-18T03:53:43;20.30;1.00
9824;DHT22;4951;50.778;7.196;2023-09-18T03:56:12;20.30;1.00
9824;DHT22;4951;50.778;7.196;2023-09-18T03:58:44;20.40;1.00
9824;DHT22;4951;50.778;7.196;2023-09-18T04:01:16;20.40;1.00
9824;DHT22;4951;50.778;7.196;2023-09-18T04:03:46;20.40;99.90
9824;DHT22;4951;50.778;7.196;2023-09-18T04:06:15;20.40;99.90
9824;DHT22;4951;50.778;7.196;2023-09-18T04:08:45;20.40;99.90
9824;DHT22;4951;50.778;7.196;2023-09-18T04:11:13;20.40;99.90
9824;DHT22;4951;50.778;7.196;2023-09-18T04:13:41;20.40;99.90
9824;DHT22;4951;50.778;7.196;2023-09-18T04:16:08;20.40;99.90
9824;DHT22;4951;50.778;7.196;2023-09-18T04:18:41;20.40;99.90
9824;DHT22;4951;50.778;7.196;2023-09-18T04:21:09;20.30;99.90
9824;DHT22;4951;50.778;7.196;2023-09-18T04:23:37;20.20;99.90
9824;DHT22;4951;50.778;7.196;2023-09-18T04:26:06;20.20;99.90
9824;DHT22;4951;50.778;7.196;2023-09-18T04:28:35;20.20;99.90
9824;DHT22;4951;50.778;7.196;2023-09-18T04:31:04;20.30;99.90
9824;DHT22;4951;50.778;7.196;2023-09-18T04:33:31;20.30;99.90
9824;DHT22;4951;50.778;7.196;2023-09-18T04:35:59;20.30;99.90
9824;DHT22;4951;50.778;7.196;2023-09-18T04:38:26;20.30;99.90
9824;DHT22;4951;50.778;7.196;2023-09-18T04:41:00;20.30;99.90
9824;DHT22;4951;50.778;7.196;2023-09-18T04:43:35;20.30;99.90
9824;DHT22;4951;50.778;7.196;2023-09-18T04:46:04;20.30;99.90
9824;DHT22;4951;50.778;7.196;2023-09-18T04:48:33;20.30;99.90
9824;DHT22;4951;50.778;7.196;2023-09-18T04:51:02;20.20;99.90
9824;DHT22;4951;50.778;7.196;2023-09-18T04:53:32;20.20;99.90
9824;DHT22;4951;50.778;7.196;2023-09-18T04:56:04;20.20;99.90
9824;DHT22;4951;50.778;7.196;2023-09-18T04:58:32;20.20;99.90
9824;DHT22;4951;50.778;7.196;2023-09-18T05:01:06;20.20;99.90
9824;DHT22;4951;50.778;7.196;2023-09-18T05:03:37;20.20;99.90
9824;DHT22;4951;50.778;7.196;2023-09-18T05:06:04;20.20;99.90
9824;DHT22;4951;50.778;7.196;2023-09-18T05:08:32;20.20;99.90
9824;DHT22;4951;50.778;7.196;2023-09-18T05:10:59;20.20;99.90
9824;DHT22;4951;50.778;7.196;2023-09-18T05:13:27;20.20;99.90
9824;DHT22;4951;50.778;7.196;2023-09-18T05:15:56;20.20;99.90
9824;DHT22;4951;50.778;7.196;2023-09-18T05:18:30;20.20;99.90
9824;DHT22;4951;50.778;7.196;2023-09-18T05:20:57;20.20;99.90
9824;DHT22;4951;50.778;7.196;2023-09-18T05:23:25;20.20;99.90
9824;DHT22;4951;50.778;7.196;2023-09-18T05:25:52;20.10;99.90
9824;DHT22;4951;50.778;7.196;2023-09-18T05:28:21;20.10;99.90
9824;DHT22;4951;50.778;7.196;2023-09-18T05:30:48;20.10;99.90
9824;DHT22;4951;50.778;7.196;2023-09-18T05:33:16;20.10;99.90
9824;DHT22;4951;50.778;7.196;2023-09-18T05:35:46;20.10;99.90
9824;DHT22;4951;50.778;7.196;2023-09-18T05:38:14;20.00;99.90
9824;DHT22;4951;50.778;7.196;2023-09-18T05:40:44;20.00;99.90
9824;DHT22;4951;50.778;7.196;2023-09-18T05:43:12;20.00;99.90
9824;DHT22;4951;50.778;7.196;2023-09-18T05:45:40;20.00;99.90
9824;DHT22;4951;50.778;7.196;2023-09-18T05:48:08;20.10;99.90
9824;DHT22;4951;50.778;7.196;2023-09-18T05:50:36;20.00;99.90
9824;DHT22;4951;50.778;7.196;2023-09-18T05:53:05;20.10;99.90
9824;DHT22;4951;50.778;7.196;2023-09-18T05:55:32;20.10;99.90
9824;DHT22;4951;50.778;7.196;2023-09-18T05:58:00;20.10;99.90
9824;DHT22;4951;50.778;7.196;2023-09-18T06:00:29;20.10;99.90
9824;DHT22;4951;50.778;7.196;2023-09-18T06:03:00;20.20;99.90
9824;DHT22;4951;50.778;7.196;2023-09-18T06:05:29;20.20;99.90
9824;DHT22;4951;50.778;7.196;2023-09-18T06:08:00;20.20;99.90
9824;DHT22;4951;50.778;7.196;2023-09-18T06:10:29;20.20;99.90
9824;DHT22;4951;50.778;7.196;2023-09-18T06:12:56;20.30;99.90
9824;DHT22;4951;50.778;7.196;2023-09-18T06:15:24;20.30;99.90
9824;DHT22;4951;50.778;7.196;2023-09-18T06:17:52;20.40;99.90
9824;DHT22;4951;50.778;7.196;2023-09-18T06:20:20;20.40;99.90
9824;DHT22;4951;50.778;7.196;2023-09-18T06:22:48;20.40;99.90
9824;DHT22;4951;50.778;7.196;2023-09-18T06:25:19;20.40;77.40
9824;DHT22;4951;50.778;7.196;2023-09-18T06:27:48;20.50;1.00
9824;DHT22;4951;50.778;7.196;2023-09-18T06:30:15;20.50;1.00
9824;DHT22;4951;50.778;7.196;2023-09-18T06:32:43;20.60;1.00
9824;DHT22;4951;50.778;7.196;2023-09-18T06:35:11;20.60;1.00
9824;DHT22;4951;50.778;7.196;2023-09-18T06:37:39;20.70;99.90
9824;DHT22;4951;50.778;7.196;2023-09-18T06:40:08;20.70;99.90
9824;DHT22;4951;50.778;7.196;2023-09-18T06:42:37;20.70;99.90
9824;DHT22;4951;50.778;7.196;2023-09-18T06:45:08;20.70;99.90
9824;DHT22;4951;50.778;7.196;2023-09-18T06:47:36;20.70;1.00
9824;DHT22;4951;50.778;7.196;2023-09-18T06:50:09;20.80;1.00
9824;DHT22;4951;50.778;7.196;2023-09-18T06:52:38;20.80;1.00
9824;DHT22;4951;50.778;7.196;2023-09-18T06:55:07;20.80;99.90
9824;DHT22;4951;50.778;7.196;2023-09-18T06:57:34;20.90;99.90
9824;DHT22;4951;50.778;7.196;2023-09-18T07:00:20;20.90;99.90
9824;DHT22;4951;50.778;7.196;2023-09-18T07:02:49;21.00;99.90
9824;DHT22;4951;50.778;7.196;2023-09-18T07:05:18;21.00;99.90
9824;DHT22;4951;50.778;7.196;2023-09-18T07:07:47;21.00;1.00
9824;DHT22;4951;50.778;7.196;2023-09-18T07:10:14;21.00;1.00
9824;DHT22;4951;50.778;7.196;2023-09-18T07:12:42;21.00;33.70
9824;DHT22;4951;50.778;7.196;2023-09-18T07:15:11;21.00;1.00
9824;DHT22;4951;50.778;7.196;2023-09-18T07:17:40;21.00;1.00
9824;DHT22;4951;50.778;7.196;2023-09-18T07:20:10;21.00;1.00
9824;DHT22;4951;50.778;7.196;2023-09-18T07:22:45;21.00;1.00
9824;DHT22;4951;50.778;7.196;2023-09-18T07:25:14;21.00;1.00
9824;DHT22;4951;50.778;7.196;2023-09-18T07:27:41;21.10;1.00
9824;DHT22;4951;50.778;7.196;2023-09-18T07:30:10;21.00;1.00
9824;DHT22;4951;50.778;7.196;2023-09-18T07:32:43;21.10;1.00
9824;DHT22;4951;50.778;7.196;2023-09-18T07:35:10;21.10;1.00
9824;DHT22;4951;50.778;7.196;2023-09-18T07:37:41;21.10;1.00
9824;DHT22;4951;50.778;7.196;2023-09-18T07:40:11;21.20;99.90
9824;DHT22;4951;50.778;7.196;2023-09-18T07:42:39;21.20;99.90
9824;DHT22;4951;50.778;7.196;2023-09-18T07:45:07;21.20;99.90
9824;DHT22;4951;50.778;7.196;2023-09-18T07:47:36;21.30;99.90
9824;DHT22;4951;50.778;7.196;2023-09-18T07:50:06;21.30;1.00
9824;DHT22;4951;50.778;7.196;2023-09-18T07:52:33;21.30;1.00
9824;DHT22;4951;50.778;7.196;2023-09-18T07:55:01;21.30;1.00
9824;DHT22;4951;50.778;7.196;2023-09-18T07:57:28;21.30;1.00
9824;DHT22;4951;50.778;7.196;2023-09-18T07:59:58;21.30;1.00
9824;DHT22;4951;50.778;7.196;2023-09-18T08:02:38;21.30;1.00
9824;DHT22;4951;50.778;7.196;2023-09-18T08:05:08;21.30;1.00
9824;DHT22;4951;50.778;7.196;2023-09-18T08:07:36;21.30;1.00
9824;DHT22;4951;50.778;7.196;2023-09-18T08:10:05;21.30;1.00
9824;DHT22;4951;50.778;7.196;2023-09-18T08:12:34;21.30;1.00
9824;DHT22;4951;50.778;7.196;2023-09-18T08:15:02;21.30;99.90
9824;DHT22;4951;50.778;7.196;2023-09-18T08:17:33;21.30;1.00
9824;DHT22;4951;50.778;7.196;2023-09-18T08:20:00;21.30;1.00
9824;DHT22;4951;50.778;7.196;2023-09-18T08:22:30;21.30;1.00
9824;DHT22;4951;50.778;7.196;2023-09-18T08:24:59;21.30;1.00
9824;DHT22;4951;50.778;7.196;2023-09-18T08:27:27;21.30;1.00
9824;DHT22;4951;50.778;7.196;2023-09-18T08:29:54;21.30;1.00
9824;DHT22;4951;50.778;7.196;2023-09-18T08:32:23;21.40;1.00
9824;DHT22;4951;50.778;7.196;2023-09-18T08:34:51;21.40;99.90
9824;DHT22;4951;50.778;7.196;2023-09-18T08:37:18;21.50;99.90
9824;DHT22;4951;50.778;7.196;2023-09-18T08:39:46;21.50;99.90
9824;DHT22;4951;50.778;7.196;2023-09-18T08:42:15;21.50;99.90
9824;DHT22;4951;50.778;7.196;2023-09-18T08:44:49;21.50;99.90
9824;DHT22;4951;50.778;7.196;2023-09-18T08:47:18;21.50;1.00
9824;DHT22;4951;50.778;7.196;2023-09-18T08:49:48;21.50;1.00
9824;DHT22;4951;50.778;7.196;2023-09-18T08:52:16;21.50;1.00
9824;DHT22;4951;50.778;7.196;2023-09-18T08:54:46;21.60;1.00
9824;DHT22;4951;50.778;7.196;2023-09-18T08:57:14;21.60;99.90
9824;DHT22;4951;50.778;7.196;2023-09-18T08:59:42;21.70;18.90
9824;DHT22;4951;50.778;7.196;2023-09-18T09:02:10;21.80;1.00
9824;DHT22;4951;50.778;7.196;2023-09-18T09:04:39;21.90;99.90
9824;DHT22;4951;50.778;7.196;2023-09-18T09:07:07;21.90;99.90
9824;DHT22;4951;50.778;7.196;2023-09-18T09:09:35;22.00;99.90
9824;DHT22;4951;50.778;7.196;2023-09-18T09:12:05;22.00;1.00
9824;DHT22;4951;50.778;7.196;2023-09-18T09:14:33;22.00;99.90
9824;DHT22;4951;50.778;7.196;2023-09-18T09:17:04;22.00;45.70
9824;DHT22;4951;50.778;7.196;2023-09-18T09:19:34;22.00;1.00
9824;DHT22;4951;50.778;7.196;2023-09-18T09:22:04;22.00;1.00
9824;DHT22;4951;50.778;7.196;2023-09-18T09:24:39;22.00;1.00
9824;DHT22;4951;50.778;7.196;2023-09-18T09:27:09;22.00;99.90
9824;DHT22;4951;50.778;7.196;2023-09-18T09:29:37;22.00;63.70
9824;DHT22;4951;50.778;7.196;2023-09-18T09:32:15;22.00;99.90
9824;DHT22;4951;50.778;7.196;2023-09-18T09:34:44;22.00;99.90
9824;DHT22;4951;50.778;7.196;2023-09-18T09:37:12;22.10;99.90
9824;DHT22;4951;50.778;7.196;2023-09-18T09:39:48;22.20;99.90
9824;DHT22;4951;50.778;7.196;2023-09-18T09:42:20;22.20;1.00
9824;DHT22;4951;50.778;7.196;2023-09-18T09:45:02;22.20;1.00
9824;DHT22;4951;50.778;7.196;2023-09-18T09:47:33;22.10;1.00
9824;DHT22;4951;50.778;7.196;2023-09-18T09:50:09;22.10;1.00
9824;DHT22;4951;50.778;7.196;2023-09-18T09:52:41;22.10;1.00
9824;DHT22;4951;50.778;7.196;2023-09-18T09:55:21;22.10;1.00
9824;DHT22;4951;50.778;7.196;2023-09-18T09:57:57;22.10;1.00
9824;DHT22;4951;50.778;7.196;2023-09-18T10:00:31;22.10;1.00
9824;DHT22;4951;50.778;7.196;2023-09-18T10:03:06;22.20;99.90
9824;DHT22;4951;50.778;7.196;2023-09-18T10:05:36;22.30;1.00
9824;DHT22;4951;50.778;7.196;2023-09-18T10:08:06;22.40;1.00
9824;DHT22;4951;50.778;7.196;2023-09-18T10:10:36;22.50;1.00
9824;DHT22;4951;50.778;7.196;2023-09-18T10:13:10;22.70;1.00
9824;DHT22;4951;50.778;7.196;2023-09-18T10:15:42;22.80;1.00
9824;DHT22;4951;50.778;7.196;2023-09-18T10:18:18;22.90;1.00
9824;DHT22;4951;50.778;7.196;2023-09-18T10:20:48;22.90;1.00
9824;DHT22;4951;50.778;7.196;2023-09-18T10:23:29;22.90;20.60
9824;DHT22;4951;50.778;7.196;2023-09-18T10:26:01;22.90;7.20
9824;DHT22;4951;50.778;7.196;2023-09-18T10:28:36;22.90;99.90
9824;DHT22;4951;50.778;7.196;2023-09-18T10:31:05;23.00;1.00
9824;DHT22;4951;50.778;7.196;2023-09-18T10:33:36;23.10;20.50
9824;DHT22;4951;50.778;7.196;2023-09-18T10:36:05;23.10;1.00
9824;DHT22;4951;50.778;7.196;2023-09-18T10:38:34;23.10;1.00
9824;DHT22;4951;50.778;7.196;2023-09-18T10:41:05;23.10;1.00
9824;DHT22;4951;50.778;7.196;2023-09-18T10:43:36;23.20;1.00
9824;DHT22;4951;50.778;7.196;2023-09-18T10:46:04;23.20;99.90
9824;DHT22;4951;50.778;7.196;2023-09-18T10:48:32;23.20;53.90
9824;DHT22;4951;50.778;7.196;2023-09-18T10:50:59;23.30;1.00
9824;DHT22;4951;50.778;7.196;2023-09-18T10:53:32;23.30;1.00
9824;DHT22;4951;50.778;7.196;2023-09-18T10:56:01;23.40;1.00
9824;DHT22;4951;50.778;7.196;2023-09-18T10:58:30;23.50;1.00
9824;DHT22;4951;50.778;7.196;2023-09-18T11:01:04;23.60;1.00
9824;DHT22;4951;50.778;7.196;2023-09-18T11:03:33;23.80;99.90
9824;DHT22;4951;50.778;7.196;2023-09-18T11:06:05;23.80;1.00
9824;DHT22;4951;50.778;7.196;2023-09-18T11:08:34;23.90;1.00
9824;DHT22;4951;50.778;7.196;2023-09-18T11:11:05;23.90;1.00
9824;DHT22;4951;50.778;7.196;2023-09-18T11:13:40;24.00;1.00
9824;DHT22;4951;50.778;7.196;2023-09-18T11:16:17;24.10;1.00
9824;DHT22;4951;50.778;7.196;2023-09-18T11:18:51;24.10;99.90
9824;DHT22;4951;50.778;7.196;2023-09-18T11:21:24;24.20;99.90
9824;DHT22;4951;50.778;7.196;2023-09-18T11:23:59;24.20;1.20
9824;DHT22;4951;50.778;7.196;2023-09-18T11:26:31;24.20;1.00
9824;DHT22;4951;50.778;7.196;2023-09-18T11:29:00;24.30;1.00
9824;DHT22;4951;50.778;7.196;2023-09-18T11:31:54;24.30;1.00
9824;DHT22;4951;50.778;7.196;2023-09-18T11:34:24;24.40;1.00
9824;DHT22;4951;50.778;7.196;2023-09-18T11:36:52;24.50;1.00
9824;DHT22;4951;50.778;7.196;2023-09-18T11:39:36;24.70;1.00
9824;DHT22;4951;50.778;7.196;2023-09-18T11:42:09;24.70;1.00
9824;DHT22;4951;50.778;7.196;2023-09-18T11:44:37;24.80;1.00
9824;DHT22;4951;50.778;7.196;2023-09-18T11:47:11;24.90;1.00
9824;DHT22;4951;50.778;7.196;2023-09-18T11:49:51;24.90;99.90
9824;DHT22;4951;50.778;7.196;2023-09-18T11:52:21;25.00;99.90
9824;DHT22;4951;50.778;7.196;2023-09-18T11:54:50;25.00;99.90
9824;DHT22;4951;50.778;7.196;2023-09-18T11:57:18;25.00;99.90
9824;DHT22;4951;50.778;7.196;2023-09-18T11:59:46;25.00;99.90
9824;DHT22;4951;50.778;7.196;2023-09-18T12:02:25;25.00;99.90
9824;DHT22;4951;50.778;7.196;2023-09-18T12:04:53;25.10;99.90
9824;DHT22;4951;50.778;7.196;2023-09-18T12:07:21;25.10;99.90
9824;DHT22;4951;50.778;7.196;2023-09-18T12:09:49;25.20;91.90
9824;DHT22;4951;50.778;7.196;2023-09-18T12:12:17;25.20;90.20
9824;DHT22;4951;50.778;7.196;2023-09-18T12:14:44;25.30;1.00
9824;DHT22;4951;50.778;7.196;2023-09-18T12:17:16;25.40;1.00
9824;DHT22;4951;50.778;7.196;2023-09-18T12:19:52;25.40;1.00
9824;DHT22;4951;50.778;7.196;2023-09-18T12:22:24;25.40;1.00
9824;DHT22;4951;50.778;7.196;2023-09-18T12:24:52;25.50;1.00
9824;DHT22;4951;50.778;7.196;2023-09-18T12:27:19;25.50;1.00
9824;DHT22;4951;50.778;7.196;2023-09-18T12:29:47;25.60;1.00
9824;DHT22;4951;50.778;7.196;2023-09-18T12:32:16;25.60;1.00
9824;DHT22;4951;50.778;7.196;2023-09-18T12:34:46;25.70;1.00
9824;DHT22;4951;50.778;7.196;2023-09-18T12:37:14;25.80;1.00
9824;DHT22;4951;50.778;7.196;2023-09-18T12:39:42;25.90;1.00
9824;DHT22;4951;50.778;7.196;2023-09-18T12:42:12;25.90;1.00
9824;DHT22;4951;50.778;7.196;2023-09-18T12:44:39;26.00;1.00
9824;DHT22;4951;50.778;7.196;2023-09-18T12:47:07;26.00;1.00
9824;DHT22;4951;50.778;7.196;2023-09-18T12:49:35;26.00;1.00
9824;DHT22;4951;50.778;7.196;2023-09-18T12:52:06;26.00;1.00
9824;DHT22;4951;50.778;7.196;2023-09-18T12:54:37;26.00;1.00
9824;DHT22;4951;50.778;7.196;2023-09-18T12:57:05;26.10;1.00
9824;DHT22;4951;50.778;7.196;2023-09-18T12:59:33;26.20;1.00
9824;DHT22;4951;50.778;7.196;2023-09-18T13:02:03;26.30;1.00
9824;DHT22;4951;50.778;7.196;2023-09-18T13:04:31;26.40;1.00
9824;DHT22;4951;50.778;7.196;2023-09-18T13:07:06;26.50;1.00
9824;DHT22;4951;50.778;7.196;2023-09-18T13:09:34;26.80;1.00
9824;DHT22;4951;50.778;7.196;2023-09-18T13:12:04;27.00;1.00
9824;DHT22;4951;50.778;7.196;2023-09-18T13:14:57;27.10;1.00
9824;DHT22;4951;50.778;7.196;2023-09-18T13:17:24;27.40;1.00
9824;DHT22;4951;50.778;7.196;2023-09-18T13:19:54;27.80;1.00
9824;DHT22;4951;50.778;7.196;2023-09-18T13:22:24;28.10;99.90
9824;DHT22;4951;50.778;7.196;2023-09-18T13:24:56;28.30;99.90
9824;DHT22;4951;50.778;7.196;2023-09-18T13:27:24;28.60;99.90
9824;DHT22;4951;50.778;7.196;2023-09-18T13:29:52;28.90;99.90
9824;DHT22;4951;50.778;7.196;2023-09-18T13:32:21;29.10;99.90
9824;DHT22;4951;50.778;7.196;2023-09-18T13:34:48;29.20;99.90
9824;DHT22;4951;50.778;7.196;2023-09-18T13:37:16;29.50;99.90
9824;DHT22;4951;50.778;7.196;2023-09-18T13:39:47;29.80;99.90
9824;DHT22;4951;50.778;7.196;2023-09-18T13:42:15;30.00;99.90
9824;DHT22;4951;50.778;7.196;2023-09-18T13:44:42;30.10;99.90
9824;DHT22;4951;50.778;7.196;2023-09-18T13:47:09;30.10;99.90
9824;DHT22;4951;50.778;7.196;2023-09-18T13:49:36;30.00;99.90
9824;DHT22;4951;50.778;7.196;2023-09-18T13:52:04;29.90;99.90
9824;DHT22;4951;50.778;7.196;2023-09-18T13:54:32;29.90;99.90
9824;DHT22;4951;50.778;7.196;2023-09-18T13:57:00;29.70;99.90
9824;DHT22;4951;50.778;7.196;2023-09-18T13:59:30;29.80;99.90
9824;DHT22;4951;50.778;7.196;2023-09-18T14:01:58;30.00;99.90
9824;DHT22;4951;50.778;7.196;2023-09-18T14:04:27;30.20;99.90
9824;DHT22;4951;50.778;7.196;2023-09-18T14:06:54;30.50;99.90
9824;DHT22;4951;50.778;7.196;2023-09-18T14:09:22;30.50;96.20
9824;DHT22;4951;50.778;7.196;2023-09-18T14:11:49;30.50;90.60
9824;DHT22;4951;50.778;7.196;2023-09-18T14:14:18;30.50;97.00
9824;DHT22;4951;50.778;7.196;2023-09-18T14:16:45;30.80;99.90
9824;DHT22;4951;50.778;7.196;2023-09-18T14:19:13;31.30;99.90
9824;DHT22;4951;50.778;7.196;2023-09-18T14:21:41;31.70;93.50
9824;DHT22;4951;50.778;7.196;2023-09-18T14:24:09;32.00;67.90
9824;DHT22;4951;50.778;7.196;2023-09-18T14:26:36;31.80;31.40
9824;DHT22;4951;50.778;7.196;2023-09-18T14:29:07;31.80;47.70
9824;DHT22;4951;50.778;7.196;2023-09-18T14:31:38;31.50;27.80
9824;DHT22;4951;50.778;7.196;2023-09-18T14:34:05;30.90;25.90
9824;DHT22;4951;50.778;7.196;2023-09-18T14:36:34;30.30;40.00
9824;DHT22;4951;50.778;7.196;2023-09-18T14:39:05;29.80;43.50
9824;DHT22;4951;50.778;7.196;2023-09-18T14:41:35;29.60;78.20
9824;DHT22;4951;50.778;7.196;2023-09-18T14:44:02;29.80;88.70
9824;DHT22;4951;50.778;7.196;2023-09-18T14:46:30;30.00;70.70
9824;DHT22;4951;50.778;7.196;2023-09-18T14:49:00;30.30;57.30
9824;DHT22;4951;50.778;7.196;2023-09-18T14:51:28;30.40;52.30
9824;DHT22;4951;50.778;7.196;2023-09-18T14:53:56;30.60;48.20
9824;DHT22;4951;50.778;7.196;2023-09-18T14:56:24;30.70;37.10
9824;DHT22;4951;50.778;7.196;2023-09-18T14:58:52;30.80;18.10
9824;DHT22;4951;50.778;7.196;2023-09-18T15:01:21;30.90;22.90
9824;DHT22;4951;50.778;7.196;2023-09-18T15:03:48;31.10;1.00
9824;DHT22;4951;50.778;7.196;2023-09-18T15:06:17;30.80;1.00
9824;DHT22;4951;50.778;7.196;2023-09-18T15:08:46;30.40;1.00
9824;DHT22;4951;50.778;7.196;2023-09-18T15:11:13;30.30;6.50
9824;DHT22;4951;50.778;7.196;2023-09-18T15:13:43;30.20;8.30
9824;DHT22;4951;50.778;7.196;2023-09-18T15:16:10;30.30;9.80
9824;DHT22;4951;50.778;7.196;2023-09-18T15:18:40;30.40;4.20
9824;DHT22;4951;50.778;7.196;2023-09-18T15:21:07;30.40;9.50
9824;DHT22;4951;50.778;7.196;2023-09-18T15:23:37;30.20;1.00
9824;DHT22;4951;50.778;7.196;2023-09-18T15:26:05;29.80;2.90
9824;DHT22;4951;50.778;7.196;2023-09-18T15:28:33;29.60;12.10
9824;DHT22;4951;50.778;7.196;2023-09-18T15:31:00;29.30;13.90
9824;DHT22;4951;50.778;7.196;2023-09-18T15:33:28;28.90;15.50
9824;DHT22;4951;50.778;7.196;2023-09-18T15:35:55;28.50;26.30
9824;DHT22;4951;50.778;7.196;2023-09-18T15:38:26;28.10;36.30
9824;DHT22;4951;50.778;7.196;2023-09-18T15:40:57;27.70;51.70
9824;DHT22;4951;50.778;7.196;2023-09-18T15:43:25;27.50;59.70
9824;DHT22;4951;50.778;7.196;2023-09-18T15:45:53;27.30;59.90
9824;DHT22;4951;50.778;7.196;2023-09-18T15:48:24;27.00;49.00
9824;DHT22;4951;50.778;7.196;2023-09-18T15:50:53;26.70;55.40
9824;DHT22;4951;50.778;7.196;2023-09-18T15:53:20;26.40;72.20
9824;DHT22;4951;50.778;7.196;2023-09-18T15:55:50;26.20;97.00
9824;DHT22;4951;50.778;7.196;2023-09-18T15:58:18;26.10;99.90
9824;DHT22;4951;50.778;7.196;2023-09-18T16:00:49;26.00;99.90
9824;DHT22;4951;50.778;7.196;2023-09-18T16:03:17;26.00;99.90
9824;DHT22;4951;50.778;7.196;2023-09-18T16:05:45;25.90;99.90
9824;DHT22;4951;50.778;7.196;2023-09-18T16:08:19;25.90;99.90
9824;DHT22;4951;50.778;7.196;2023-09-18T16:10:46;25.80;99.90
9824;DHT22;4951;50.778;7.196;2023-09-18T16:13:14;25.80;99.90
9824;DHT22;4951;50.778;7.196;2023-09-18T16:15:42;25.80;99.90
9824;DHT22;4951;50.778;7.196;2023-09-18T16:18:11;25.70;99.90
9824;DHT22;4951;50.778;7.196;2023-09-18T16:20:39;25.60;99.90
9824;DHT22;4951;50.778;7.196;2023-09-18T16:23:06;25.50;99.90
9824;DHT22;4951;50.778;7.196;2023-09-18T16:25:33;25.50;99.90